createdAt,value
2018-03-26T00:00:01.530Z,96.36
2018-03-26T00:01:01.547Z,96.26
2018-03-26T00:02:01.565Z,96.84
2018-03-26T00:03:01.587Z,96.65
2018-03-26T00:04:01.599Z,96.84
2018-03-26T00:05:01.616Z,97.03
2018-03-26T00:06:01.635Z,96.17
2018-03-26T00:07:01.654Z,96.36
2018-03-26T00:08:01.672Z,96.74
2018-03-26T00:09:01.686Z,96.55
2018-03-26T00:10:01.704Z,96.84
2018-03-26T00:11:01.722Z,96.93
2018-03-26T00:12:01.737Z,96.26
2018-03-26T00:13:01.756Z,96.84
2018-03-26T00:14:01.773Z,96.65
2018-03-26T00:15:01.793Z,96.65
2018-03-26T00:16:01.807Z,96.26
2018-03-26T00:17:01.825Z,97.03
2018-03-26T00:18:01.842Z,96.36
2018-03-26T00:19:01.859Z,96.26
2018-03-26T00:20:01.874Z,96.45
2018-03-26T00:21:01.896Z,96.45
2018-03-26T00:22:01.911Z,96.26
2018-03-26T00:23:01.928Z,96.55
2018-03-26T00:24:01.951Z,96.45
2018-03-26T00:25:01.962Z,96.55
2018-03-26T00:26:01.979Z,96.93
2018-03-26T00:27:01.997Z,96.45
2018-03-26T00:28:02.014Z,96.36
2018-03-26T00:29:02.031Z,96.36
2018-03-26T00:30:02.049Z,96.74
2018-03-26T00:31:02.066Z,96.45
2018-03-26T00:32:02.083Z,96.45
2018-03-26T00:33:02.100Z,96.45
2018-03-26T00:34:02.120Z,96.45
2018-03-26T00:35:02.137Z,96.93
2018-03-26T00:36:02.152Z,96.45
2018-03-26T00:37:02.168Z,96.31
2018-03-26T00:38:02.188Z,96.84
2018-03-26T00:39:02.203Z,96.45
2018-03-26T00:40:02.221Z,96.60
2018-03-26T00:41:02.238Z,96.26
2018-03-26T00:42:02.255Z,96.60
2018-03-26T00:43:02.272Z,96.41
2018-03-26T00:44:02.293Z,96.41
2018-03-26T00:45:02.305Z,96.41
2018-03-26T00:46:02.323Z,96.79
2018-03-26T00:47:02.340Z,96.41
2018-03-26T00:48:02.356Z,96.60
2018-03-26T00:49:02.381Z,96.41
2018-03-26T00:50:02.391Z,96.31
2018-03-26T00:51:02.410Z,96.98
2018-03-26T00:52:02.425Z,96.60
2018-03-26T00:53:02.446Z,96.31
2018-03-26T00:54:02.462Z,96.98
2018-03-26T00:55:02.477Z,96.79
2018-03-26T00:56:02.495Z,96.88
2018-03-26T00:57:02.553Z,96.22
2018-03-26T00:58:02.528Z,96.98
2018-03-26T00:59:02.545Z,96.60
2018-03-26T01:00:02.563Z,96.88
2018-03-26T01:01:02.579Z,96.50
2018-03-26T01:02:02.598Z,96.69
2018-03-26T01:03:02.618Z,96.79
2018-03-26T01:04:02.630Z,97.07
2018-03-26T01:05:02.648Z,96.50
2018-03-26T01:06:02.665Z,96.79
2018-03-26T01:07:02.782Z,96.69
2018-03-26T01:08:02.699Z,96.98
2018-03-26T01:09:02.717Z,96.79
2018-03-26T01:10:02.734Z,96.60
2018-03-26T01:11:02.750Z,97.07
2018-03-26T01:12:02.765Z,97.07
2018-03-26T01:13:02.789Z,96.31
2018-03-26T01:14:02.801Z,96.69
2018-03-26T01:15:02.820Z,96.88
2018-03-26T01:16:02.834Z,96.60
2018-03-26T01:17:02.851Z,97.07
2018-03-26T01:18:02.869Z,96.88
2018-03-26T01:19:02.886Z,96.98
2018-03-26T01:20:02.904Z,97.07
2018-03-26T01:21:02.921Z,96.69
2018-03-26T01:22:02.937Z,97.07
2018-03-26T01:23:02.954Z,96.98
2018-03-26T01:24:02.971Z,96.88
2018-03-26T01:25:02.988Z,96.98
2018-03-26T01:26:03.005Z,96.98
2018-03-26T01:27:03.022Z,96.88
2018-03-26T01:28:03.038Z,96.60
2018-03-26T01:29:03.057Z,96.69
2018-03-26T01:30:03.074Z,97.17
2018-03-26T01:31:03.090Z,96.88
2018-03-26T01:32:03.108Z,96.98
2018-03-26T01:33:03.124Z,97.07
2018-03-26T01:34:03.144Z,97.07
2018-03-26T01:35:03.165Z,96.79
2018-03-26T01:36:03.176Z,96.98
2018-03-26T01:37:03.190Z,96.98
2018-03-26T01:38:03.210Z,96.88
2018-03-26T01:39:03.226Z,96.60
2018-03-26T01:40:03.243Z,96.98
2018-03-26T01:41:03.260Z,97.07
2018-03-26T01:42:03.277Z,97.07
2018-03-26T01:43:03.294Z,97.07
2018-03-26T01:44:03.310Z,96.79
2018-03-26T01:45:03.328Z,96.79
2018-03-26T01:46:03.345Z,96.79
2018-03-26T01:47:03.362Z,97.07
2018-03-26T01:48:03.378Z,97.07
2018-03-26T01:49:03.397Z,96.98
2018-03-26T01:50:03.414Z,97.07
2018-03-26T01:51:03.430Z,96.98
2018-03-26T01:52:03.447Z,97.07
2018-03-26T01:53:03.463Z,96.88
2018-03-26T01:54:03.480Z,97.07
2018-03-26T01:55:03.496Z,96.79
2018-03-26T01:56:03.514Z,96.88
2018-03-26T01:57:03.529Z,96.98
2018-03-26T01:58:03.548Z,97.07
2018-03-26T01:59:03.608Z,96.79
2018-03-26T02:00:03.585Z,96.88
2018-03-26T02:01:03.598Z,97.07
2018-03-26T02:02:03.615Z,96.79
2018-03-26T02:03:03.633Z,96.98
2018-03-26T02:04:03.648Z,96.88
2018-03-26T02:05:03.666Z,96.79
2018-03-26T02:06:03.683Z,96.69
2018-03-26T02:07:03.699Z,96.88
2018-03-26T02:08:03.716Z,96.79
2018-03-26T02:09:03.739Z,96.98
2018-03-26T02:10:03.750Z,96.98
2018-03-26T02:11:03.767Z,96.88
2018-03-26T02:12:03.784Z,96.69
2018-03-26T02:13:03.801Z,97.07
2018-03-26T02:14:03.818Z,96.88
2018-03-26T02:15:03.835Z,96.88
2018-03-26T02:16:03.857Z,96.69
2018-03-26T02:17:03.870Z,96.79
2018-03-26T02:18:03.885Z,96.69
2018-03-26T02:19:03.902Z,97.02
2018-03-26T02:20:03.919Z,96.88
2018-03-26T02:21:03.935Z,96.74
2018-03-26T02:22:03.953Z,97.27
2018-03-26T02:23:03.970Z,96.98
2018-03-26T02:24:03.986Z,97.27
2018-03-26T02:25:04.003Z,97.55
2018-03-26T02:26:04.021Z,96.83
2018-03-26T02:27:04.038Z,96.83
2018-03-26T02:28:04.054Z,97.27
2018-03-26T02:29:04.070Z,97.31
2018-03-26T02:30:04.088Z,97.12
2018-03-26T02:31:04.105Z,96.64
2018-03-26T02:32:04.121Z,97.02
2018-03-26T02:33:04.139Z,97.22
2018-03-26T02:34:04.155Z,96.64
2018-03-26T02:35:04.172Z,97.02
2018-03-26T02:36:04.188Z,97.02
2018-03-26T02:37:04.206Z,96.83
2018-03-26T02:38:04.222Z,97.02
2018-03-26T02:39:04.239Z,97.12
2018-03-26T02:40:04.256Z,96.64
2018-03-26T02:41:04.279Z,97.22
2018-03-26T02:42:04.290Z,96.55
2018-03-26T02:43:04.308Z,96.55
2018-03-26T02:44:04.323Z,97.50
2018-03-26T02:45:04.340Z,97.02
2018-03-26T02:46:04.357Z,97.22
2018-03-26T02:47:04.374Z,97.31
2018-03-26T02:48:04.390Z,96.55
2018-03-26T02:49:04.417Z,97.22
2018-03-26T02:50:04.425Z,97.22
2018-03-26T02:51:04.443Z,97.22
2018-03-26T02:52:04.459Z,97.02
2018-03-26T02:53:04.474Z,97.02
2018-03-26T02:54:04.491Z,97.02
2018-03-26T02:55:04.508Z,97.02
2018-03-26T02:56:04.525Z,97.22
2018-03-26T02:57:04.543Z,97.02
2018-03-26T02:58:04.563Z,96.74
2018-03-26T02:59:04.590Z,97.22
2018-03-26T03:00:04.591Z,96.93
2018-03-26T03:01:04.608Z,97.12
2018-03-26T03:02:04.625Z,96.83
2018-03-26T03:03:04.642Z,97.31
2018-03-26T03:04:04.656Z,97.12
2018-03-26T03:05:04.676Z,97.02
2018-03-26T03:06:04.692Z,97.02
2018-03-26T03:07:04.708Z,97.12
2018-03-26T03:08:04.725Z,96.83
2018-03-26T03:09:04.742Z,97.02
2018-03-26T03:10:04.758Z,97.02
2018-03-26T03:11:04.775Z,96.83
2018-03-26T03:12:04.792Z,97.12
2018-03-26T03:13:04.808Z,96.83
2018-03-26T03:14:04.829Z,97.02
2018-03-26T03:15:04.847Z,97.12
2018-03-26T03:16:04.857Z,97.02
2018-03-26T03:17:04.875Z,97.02
2018-03-26T03:18:04.892Z,97.12
2018-03-26T03:19:04.908Z,96.45
2018-03-26T03:20:04.924Z,96.45
2018-03-26T03:21:04.941Z,97.22
2018-03-26T03:22:04.957Z,97.22
2018-03-26T03:23:04.974Z,97.12
2018-03-26T03:24:04.990Z,96.93
2018-03-26T03:25:05.007Z,96.93
2018-03-26T03:26:05.024Z,96.93
2018-03-26T03:27:05.042Z,97.12
2018-03-26T03:28:05.056Z,97.02
2018-03-26T03:29:05.073Z,97.02
2018-03-26T03:30:05.091Z,97.02
2018-03-26T03:31:05.158Z,96.93
2018-03-26T03:32:05.171Z,97.02
2018-03-26T03:33:05.142Z,96.45
2018-03-26T03:34:05.156Z,96.93
2018-03-26T03:35:05.171Z,97.12
2018-03-26T03:36:05.188Z,97.02
2018-03-26T03:37:05.206Z,97.12
2018-03-26T03:38:05.222Z,96.45
2018-03-26T03:39:05.239Z,97.12
2018-03-26T03:40:05.255Z,96.93
2018-03-26T03:41:05.272Z,96.64
2018-03-26T03:42:05.288Z,97.12
2018-03-26T03:43:05.305Z,97.02
2018-03-26T03:44:05.321Z,97.12
2018-03-26T03:45:05.338Z,96.55
2018-03-26T03:46:05.355Z,97.12
2018-03-26T03:47:05.377Z,97.17
2018-03-26T03:48:05.387Z,96.93
2018-03-26T03:49:05.403Z,96.41
2018-03-26T03:50:05.421Z,97.26
2018-03-26T03:51:05.437Z,96.88
2018-03-26T03:52:05.454Z,96.59
2018-03-26T03:53:05.468Z,96.41
2018-03-26T03:54:05.495Z,96.50
2018-03-26T03:55:05.507Z,96.59
2018-03-26T03:56:05.520Z,96.78
2018-03-26T03:57:05.536Z,97.07
2018-03-26T03:58:05.553Z,96.59
2018-03-26T03:59:05.568Z,97.26
2018-03-26T04:00:05.607Z,96.59
2018-03-26T04:01:05.601Z,96.59
2018-03-26T04:02:05.618Z,96.50
2018-03-26T04:03:05.635Z,96.41
2018-03-26T04:04:05.650Z,96.12
2018-03-26T04:05:05.667Z,96.41
2018-03-26T04:06:05.684Z,96.59
2018-03-26T04:07:05.700Z,96.50
2018-03-26T04:08:05.716Z,96.41
2018-03-26T04:09:05.733Z,96.12
2018-03-26T04:10:05.749Z,96.41
2018-03-26T04:11:05.768Z,96.50
2018-03-26T04:12:05.782Z,96.50
2018-03-26T04:13:05.799Z,96.50
2018-03-26T04:14:05.818Z,96.12
2018-03-26T04:15:05.832Z,96.22
2018-03-26T04:16:05.852Z,96.22
2018-03-26T04:17:05.863Z,96.12
2018-03-26T04:18:05.880Z,96.41
2018-03-26T04:19:05.897Z,96.31
2018-03-26T04:20:05.913Z,96.22
2018-03-26T04:21:05.929Z,96.31
2018-03-26T04:22:05.946Z,96.22
2018-03-26T04:23:05.962Z,96.22
2018-03-26T04:24:05.977Z,96.12
2018-03-26T04:25:05.996Z,96.31
2018-03-26T04:26:06.012Z,96.31
2018-03-26T04:27:06.028Z,96.12
2018-03-26T04:28:06.045Z,96.31
2018-03-26T04:29:06.061Z,96.22
2018-03-26T04:30:06.077Z,96.31
2018-03-26T04:31:06.097Z,96.22
2018-03-26T04:32:06.122Z,96.41
2018-03-26T04:33:06.125Z,96.31
2018-03-26T04:34:06.142Z,96.22
2018-03-26T04:35:06.162Z,96.31
2018-03-26T04:36:06.174Z,96.31
2018-03-26T04:37:06.192Z,96.31
2018-03-26T04:38:06.207Z,96.12
2018-03-26T04:39:06.224Z,96.22
2018-03-26T04:40:06.240Z,96.31
2018-03-26T04:41:06.256Z,96.31
2018-03-26T04:42:06.273Z,96.22
2018-03-26T04:43:06.289Z,96.41
2018-03-26T04:44:06.305Z,96.31
2018-03-26T04:45:06.321Z,96.31
2018-03-26T04:46:06.338Z,96.31
2018-03-26T04:47:06.359Z,96.50
2018-03-26T04:48:06.371Z,96.22
2018-03-26T04:49:06.387Z,96.03
2018-03-26T04:50:06.403Z,96.03
2018-03-26T04:51:06.419Z,96.12
2018-03-26T04:52:06.435Z,96.12
2018-03-26T04:53:06.452Z,96.31
2018-03-26T04:54:06.468Z,96.31
2018-03-26T04:55:06.484Z,96.41
2018-03-26T04:56:06.500Z,96.50
2018-03-26T04:57:06.517Z,97.07
2018-03-26T04:58:06.533Z,96.59
2018-03-26T04:59:06.550Z,96.22
2018-03-26T05:00:06.566Z,96.41
2018-03-26T05:01:06.582Z,96.78
2018-03-26T05:02:06.598Z,97.07
2018-03-26T05:03:06.614Z,97.07
2018-03-26T05:04:06.631Z,96.88
2018-03-26T05:05:06.647Z,96.97
2018-03-26T05:06:06.667Z,96.69
2018-03-26T05:07:06.681Z,96.22
2018-03-26T05:08:06.696Z,96.97
2018-03-26T05:09:06.713Z,96.88
2018-03-26T05:10:06.735Z,97.07
2018-03-26T05:11:06.749Z,96.88
2018-03-26T05:12:06.762Z,96.88
2018-03-26T05:13:06.779Z,96.50
2018-03-26T05:14:06.794Z,97.17
2018-03-26T05:15:06.812Z,96.88
2018-03-26T05:16:06.826Z,96.69
2018-03-26T05:17:06.849Z,96.50
2018-03-26T05:18:06.860Z,96.97
2018-03-26T05:19:06.877Z,96.88
2018-03-26T05:20:06.893Z,97.07
2018-03-26T05:21:06.910Z,96.78
2018-03-26T05:22:06.923Z,97.07
2018-03-26T05:23:06.942Z,96.97
2018-03-26T05:24:06.957Z,96.69
2018-03-26T05:25:06.973Z,96.88
2018-03-26T05:26:06.990Z,96.78
2018-03-26T05:27:07.007Z,96.88
2018-03-26T05:28:07.024Z,96.78
2018-03-26T05:29:07.039Z,97.74
2018-03-26T05:30:07.056Z,96.78
2018-03-26T05:31:07.121Z,97.92
2018-03-26T05:32:07.088Z,97.64
2018-03-26T05:33:07.104Z,97.17
2018-03-26T05:34:07.121Z,97.17
2018-03-26T05:35:07.137Z,97.64
2018-03-26T05:36:07.152Z,97.45
2018-03-26T05:37:07.169Z,97.36
2018-03-26T05:38:07.185Z,96.78
2018-03-26T05:39:07.202Z,97.55
2018-03-26T05:40:07.217Z,97.45
2018-03-26T05:41:07.234Z,98.30
2018-03-26T05:42:07.250Z,96.69
2018-03-26T05:43:07.268Z,97.45
2018-03-26T05:44:07.332Z,97.92
2018-03-26T05:45:07.305Z,97.45
2018-03-26T05:46:07.315Z,97.55
2018-03-26T05:47:07.332Z,98.11
2018-03-26T05:48:07.348Z,97.36
2018-03-26T05:49:07.369Z,97.55
2018-03-26T05:50:07.381Z,97.74
2018-03-26T05:51:07.396Z,97.45
2018-03-26T05:52:07.412Z,98.02
2018-03-26T05:53:07.428Z,97.45
2018-03-26T05:54:07.448Z,97.83
2018-03-26T05:55:07.461Z,97.55
2018-03-26T05:56:07.476Z,97.45
2018-03-26T05:57:07.493Z,97.83
2018-03-26T05:58:07.514Z,97.83
2018-03-26T05:59:07.526Z,97.83
2018-03-26T06:00:07.551Z,97.74
2018-03-26T06:01:07.558Z,98.02
2018-03-26T06:02:07.614Z,97.83
2018-03-26T06:03:07.591Z,97.74
2018-03-26T06:04:07.606Z,97.64
2018-03-26T06:05:07.623Z,97.83
2018-03-26T06:06:07.639Z,97.92
2018-03-26T06:07:07.654Z,97.55
2018-03-26T06:08:07.671Z,97.92
2018-03-26T06:09:07.687Z,98.02
2018-03-26T06:10:07.704Z,97.74
2018-03-26T06:11:07.718Z,97.45
2018-03-26T06:12:07.735Z,97.83
2018-03-26T06:13:07.752Z,97.45
2018-03-26T06:14:07.771Z,97.83
2018-03-26T06:15:07.784Z,98.02
2018-03-26T06:16:07.800Z,97.74
2018-03-26T06:17:07.816Z,97.74
2018-03-26T06:18:07.833Z,97.64
2018-03-26T06:19:07.872Z,97.83
2018-03-26T06:20:07.864Z,97.26
2018-03-26T06:21:07.881Z,97.55
2018-03-26T06:22:07.897Z,97.64
2018-03-26T06:23:07.914Z,97.69
2018-03-26T06:24:07.930Z,97.59
2018-03-26T06:25:07.949Z,97.31
2018-03-26T06:26:07.962Z,97.69
2018-03-26T06:27:07.978Z,97.50
2018-03-26T06:28:07.993Z,97.69
2018-03-26T06:29:08.011Z,97.88
2018-03-26T06:30:08.026Z,97.50
2018-03-26T06:31:08.045Z,97.40
2018-03-26T06:32:08.057Z,97.50
2018-03-26T06:33:08.074Z,97.12
2018-03-26T06:34:08.090Z,97.59
2018-03-26T06:35:08.108Z,97.40
2018-03-26T06:36:08.122Z,97.59
2018-03-26T06:37:08.147Z,97.50
2018-03-26T06:38:08.155Z,97.21
2018-03-26T06:39:08.171Z,97.50
2018-03-26T06:40:08.187Z,97.59
2018-03-26T06:41:08.203Z,97.50
2018-03-26T06:42:08.219Z,97.74
2018-03-26T06:43:08.236Z,97.12
2018-03-26T06:44:08.315Z,97.36
2018-03-26T06:45:08.267Z,97.36
2018-03-26T06:46:08.284Z,97.64
2018-03-26T06:47:08.299Z,97.74
2018-03-26T06:48:08.315Z,97.26
2018-03-26T06:49:08.331Z,97.36
2018-03-26T06:50:08.348Z,97.26
2018-03-26T06:51:08.369Z,97.26
2018-03-26T06:52:08.380Z,97.59
2018-03-26T06:53:08.396Z,97.12
2018-03-26T06:54:08.416Z,97.40
2018-03-26T06:55:08.434Z,97.12
2018-03-26T06:56:08.455Z,97.40
2018-03-26T06:57:08.517Z,97.50
2018-03-26T06:58:08.561Z,97.69
2018-03-26T06:59:08.537Z,98.16
2018-03-26T07:00:08.534Z,97.69
2018-03-26T07:01:08.577Z,97.83
2018-03-26T07:02:08.549Z,97.92
2018-03-26T07:03:08.583Z,97.78
2018-03-26T07:04:08.579Z,97.78
2018-03-26T07:05:08.604Z,97.31
2018-03-26T07:06:08.615Z,98.11
2018-03-26T07:07:08.625Z,97.26
2018-03-26T07:08:08.641Z,98.02
2018-03-26T07:09:08.674Z,97.74
2018-03-26T07:10:08.677Z,98.02
2018-03-26T07:11:08.688Z,97.45
2018-03-26T07:12:08.712Z,97.74
2018-03-26T07:13:09.352Z,97.55
2018-03-26T07:14:08.739Z,97.36
2018-03-26T07:15:08.754Z,97.36
2018-03-26T07:16:08.765Z,97.78
2018-03-26T07:17:08.787Z,97.21
2018-03-26T07:18:08.808Z,97.31
2018-03-26T07:19:08.818Z,97.69
2018-03-26T07:20:08.835Z,97.78
2018-03-26T07:21:08.847Z,97.88
2018-03-26T07:22:08.862Z,97.69
2018-03-26T07:23:08.879Z,97.40
2018-03-26T07:24:08.996Z,97.59
2018-03-26T07:25:08.910Z,97.78
2018-03-26T07:26:08.926Z,97.40
2018-03-26T07:27:08.943Z,97.50
2018-03-26T07:28:08.958Z,97.97
2018-03-26T07:29:09.074Z,97.97
2018-03-26T07:30:08.991Z,98.25
2018-03-26T07:31:09.007Z,98.25
2018-03-26T07:32:09.023Z,97.59
2018-03-26T07:33:09.039Z,98.35
2018-03-26T07:34:09.054Z,98.16
2018-03-26T07:35:09.135Z,98.44
2018-03-26T07:36:09.382Z,98.16
2018-03-26T07:37:09.111Z,97.97
2018-03-26T07:38:09.126Z,98.16
2018-03-26T07:39:09.142Z,98.07
2018-03-26T07:40:09.257Z,98.44
2018-03-26T07:41:09.220Z,98.35
2018-03-26T07:42:09.187Z,97.69
2018-03-26T07:43:09.366Z,98.16
2018-03-26T07:44:09.281Z,98.82
2018-03-26T07:45:09.334Z,98.25
2018-03-26T07:46:09.262Z,98.16
2018-03-26T07:47:09.280Z,98.35
2018-03-26T07:48:09.281Z,97.97
2018-03-26T07:49:09.652Z,97.88
2018-03-26T07:50:09.326Z,97.92
2018-03-26T07:51:09.330Z,98.49
2018-03-26T07:52:09.358Z,98.16
2018-03-26T07:53:09.363Z,98.44
2018-03-26T07:54:09.403Z,98.16
2018-03-26T07:55:09.396Z,98.30
2018-03-26T07:56:09.411Z,98.35
2018-03-26T07:57:09.526Z,98.63
2018-03-26T07:58:09.442Z,98.30
2018-03-26T07:59:09.461Z,98.21
2018-03-26T08:00:09.479Z,97.92
2018-03-26T08:01:09.488Z,98.30
2018-03-26T08:02:09.509Z,97.83
2018-03-26T08:03:09.528Z,98.44
2018-03-26T08:04:09.537Z,99.06
2018-03-26T08:05:09.553Z,99.06
2018-03-26T08:06:09.571Z,98.11
2018-03-26T08:07:09.587Z,98.30
2018-03-26T08:08:09.602Z,97.69
2018-03-26T08:09:09.618Z,98.07
2018-03-26T08:10:09.637Z,98.07
2018-03-26T08:11:09.652Z,98.07
2018-03-26T08:12:09.667Z,97.97
2018-03-26T08:13:09.683Z,98.35
2018-03-26T08:14:09.700Z,98.44
2018-03-26T08:15:09.716Z,98.16
2018-03-26T08:16:09.731Z,98.44
2018-03-26T08:17:09.899Z,98.49
2018-03-26T08:18:09.764Z,98.35
2018-03-26T08:19:09.781Z,97.59
2018-03-26T08:20:09.796Z,97.78
2018-03-26T08:21:09.814Z,98.25
2018-03-26T08:22:09.830Z,98.73
2018-03-26T08:23:10.447Z,98.59
2018-03-26T08:24:09.861Z,98.16
2018-03-26T08:25:09.878Z,97.97
2018-03-26T08:26:09.895Z,98.35
2018-03-26T08:27:09.911Z,98.35
2018-03-26T08:28:09.984Z,98.40
2018-03-26T08:29:09.943Z,98.59
2018-03-26T08:30:10.022Z,98.59
2018-03-26T08:30:57.311Z,98.59
2018-03-26T08:31:57.297Z,98.40
2018-03-26T08:32:57.312Z,98.40
2018-03-26T08:33:57.329Z,98.30
2018-03-26T08:34:57.346Z,97.92
2018-03-26T08:35:57.360Z,98.30
2018-03-26T08:36:57.377Z,98.21
2018-03-26T08:37:57.392Z,98.59
2018-03-26T08:38:57.410Z,98.30
2018-03-26T08:39:57.424Z,98.02
2018-03-26T08:40:57.444Z,98.21
2018-03-26T08:41:57.459Z,98.54
2018-03-26T08:42:57.475Z,97.78
2018-03-26T08:43:57.499Z,97.88
2018-03-26T08:44:57.507Z,98.07
2018-03-26T08:45:57.524Z,98.25
2018-03-26T08:46:57.539Z,98.07
2018-03-26T08:47:57.556Z,98.07
2018-03-26T08:48:57.572Z,98.35
2018-03-26T08:49:57.621Z,98.07
2018-03-26T08:50:57.605Z,98.78
2018-03-26T08:51:57.622Z,97.92
2018-03-26T08:52:57.679Z,98.78
2018-03-26T08:53:57.725Z,98.68
2018-03-26T08:54:57.754Z,98.21
2018-03-26T08:55:57.689Z,98.40
2018-03-26T08:56:57.973Z,98.11
2018-03-26T08:57:57.723Z,98.40
2018-03-26T08:58:57.783Z,98.40
2018-03-26T08:59:57.767Z,97.83
2018-03-26T09:00:57.777Z,97.64
2018-03-26T09:01:57.847Z,98.21
2018-03-26T09:02:57.913Z,98.59
2018-03-26T09:03:57.864Z,98.97
2018-03-26T09:04:57.886Z,97.83
2018-03-26T09:05:57.873Z,98.59
2018-03-26T09:06:57.968Z,97.74
2018-03-26T09:07:59.788Z,98.59
2018-03-26T09:08:57.903Z,97.92
2018-03-26T09:09:57.919Z,98.59
2018-03-26T09:10:57.935Z,98.49
2018-03-26T09:11:57.982Z,97.92
2018-03-26T09:12:57.969Z,98.11
2018-03-26T09:13:57.986Z,98.21
2018-03-26T09:14:58.002Z,98.11
2018-03-26T09:15:58.020Z,98.02
2018-03-26T09:16:58.035Z,98.68
2018-03-26T09:17:58.054Z,97.92
2018-03-26T09:18:58.068Z,98.11
2018-03-26T09:19:58.086Z,98.40
2018-03-26T09:20:58.102Z,99.91
2018-03-26T09:21:58.119Z,99.99
2018-03-26T09:22:58.136Z,99.21
2018-03-26T09:23:58.152Z,98.26
2018-03-26T09:24:58.169Z,98.07
2018-03-26T09:25:58.186Z,97.64
2018-03-26T09:26:58.262Z,98.16
2018-03-26T09:27:58.218Z,98.26
2018-03-26T09:28:58.235Z,98.26
2018-03-26T09:29:58.253Z,97.78
2018-03-26T09:30:58.268Z,98.07
2018-03-26T09:31:58.285Z,98.35
2018-03-26T09:32:58.304Z,98.26
2018-03-26T09:33:58.319Z,97.78
2018-03-26T09:34:58.335Z,98.26
2018-03-26T09:35:58.353Z,98.26
2018-03-26T09:36:58.371Z,97.50
2018-03-26T09:37:58.387Z,97.97
2018-03-26T09:38:58.403Z,97.88
2018-03-26T09:39:58.420Z,98.07
2018-03-26T09:40:58.437Z,98.26
2018-03-26T09:41:58.455Z,98.16
2018-03-26T09:42:58.488Z,97.60
2018-03-26T09:43:58.488Z,97.97
2018-03-26T09:44:58.505Z,98.21
2018-03-26T09:45:58.522Z,98.21
2018-03-26T09:46:58.539Z,98.31
2018-03-26T09:47:58.556Z,97.36
2018-03-26T09:48:58.875Z,98.12
2018-03-26T09:49:58.591Z,97.45
2018-03-26T09:50:58.607Z,97.83
2018-03-26T09:51:58.632Z,97.64
2018-03-26T09:52:58.642Z,97.27
2018-03-26T09:53:58.660Z,97.27
2018-03-26T09:54:58.676Z,97.74
2018-03-26T09:55:58.695Z,97.55
2018-03-26T09:56:58.710Z,97.74
2018-03-26T09:57:58.728Z,97.64
2018-03-26T09:58:58.744Z,97.45
2018-03-26T09:59:58.768Z,97.83
2018-03-26T10:00:58.779Z,97.64
2018-03-26T10:01:58.797Z,97.92
2018-03-26T10:02:58.813Z,97.45
2018-03-26T10:03:58.830Z,97.45
2018-03-26T10:04:58.849Z,97.60
2018-03-26T10:05:58.865Z,97.45
2018-03-26T10:06:58.882Z,97.69
2018-03-26T10:07:58.900Z,97.31
2018-03-26T10:08:58.917Z,97.50
2018-03-26T10:09:58.935Z,97.78
2018-03-26T10:10:58.952Z,97.69
2018-03-26T10:11:58.969Z,97.41
2018-03-26T10:12:58.987Z,97.07
2018-03-26T10:13:59.005Z,97.64
2018-03-26T10:14:59.022Z,97.83
2018-03-26T10:15:59.039Z,97.60
2018-03-26T10:16:59.056Z,97.50
2018-03-26T10:17:59.077Z,97.88
2018-03-26T10:18:59.091Z,97.12
2018-03-26T10:19:59.110Z,97.03
2018-03-26T10:20:59.126Z,97.78
2018-03-26T10:21:59.146Z,97.50
2018-03-26T10:22:59.162Z,97.50
2018-03-26T10:23:59.179Z,97.88
2018-03-26T10:24:59.198Z,97.41
2018-03-26T10:25:59.221Z,97.12
2018-03-26T10:26:59.232Z,97.78
2018-03-26T10:27:59.250Z,97.41
2018-03-26T10:28:59.268Z,97.12
2018-03-26T10:29:59.288Z,97.78
2018-03-26T10:30:59.303Z,97.78
2018-03-26T10:31:59.321Z,97.31
2018-03-26T10:32:59.338Z,96.93
2018-03-26T10:33:59.356Z,96.84
2018-03-26T10:34:59.373Z,97.12
2018-03-26T10:35:59.393Z,97.12
2018-03-26T10:36:59.410Z,96.93
2018-03-26T10:37:59.427Z,96.84
2018-03-26T10:38:59.445Z,97.12
2018-03-26T10:39:59.463Z,97.55
2018-03-26T10:40:59.481Z,97.03
2018-03-26T10:41:59.498Z,97.22
2018-03-26T10:42:59.515Z,97.69
2018-03-26T10:43:59.534Z,97.69
2018-03-26T10:44:59.553Z,97.31
2018-03-26T10:45:59.570Z,96.84
2018-03-26T10:46:59.586Z,97.12
2018-03-26T10:47:59.605Z,97.03
2018-03-26T10:48:59.624Z,97.22
2018-03-26T10:49:59.641Z,96.98
2018-03-26T10:50:59.658Z,96.45
2018-03-26T10:51:59.676Z,96.79
2018-03-26T10:52:59.704Z,96.60
2018-03-26T10:53:59.712Z,96.55
2018-03-26T10:54:59.729Z,96.55
2018-03-26T10:55:59.747Z,96.55
2018-03-26T10:56:59.764Z,96.41
2018-03-26T10:57:59.783Z,96.69
2018-03-26T10:58:59.799Z,95.94
2018-03-26T10:59:59.818Z,96.22
2018-03-26T11:00:59.836Z,96.41
2018-03-26T11:01:59.854Z,96.69
2018-03-26T11:02:59.871Z,96.65
2018-03-26T11:03:59.890Z,96.65
2018-03-26T11:04:59.907Z,97.08
2018-03-26T11:05:59.926Z,96.60
2018-03-26T11:06:59.944Z,96.60
2018-03-26T11:07:59.960Z,96.41
2018-03-26T11:08:59.979Z,96.31
2018-03-26T11:09:59.997Z,96.31
2018-03-26T11:11:00.021Z,96.60
2018-03-26T11:12:00.033Z,96.69
2018-03-26T11:13:00.051Z,96.50
2018-03-26T11:14:00.069Z,96.60
2018-03-26T11:15:00.093Z,96.69
2018-03-26T11:16:00.105Z,96.79
2018-03-26T11:17:00.122Z,96.60
2018-03-26T11:18:00.141Z,96.50
2018-03-26T11:19:00.158Z,96.22
2018-03-26T11:20:00.176Z,96.69
2018-03-26T11:21:00.193Z,96.60
2018-03-26T11:22:00.212Z,97.08
2018-03-26T11:23:00.229Z,96.41
2018-03-26T11:24:00.248Z,96.50
2018-03-26T11:25:00.266Z,96.50
2018-03-26T11:26:00.284Z,96.74
2018-03-26T11:27:00.303Z,96.55
2018-03-26T11:28:00.340Z,96.12
2018-03-26T11:29:00.338Z,96.41
2018-03-26T11:30:00.357Z,96.03
2018-03-26T11:31:00.373Z,96.22
2018-03-26T11:32:00.392Z,96.46
2018-03-26T11:33:00.411Z,95.84
2018-03-26T11:34:00.428Z,95.75
2018-03-26T11:35:00.446Z,96.31
2018-03-26T11:36:00.465Z,96.89
2018-03-26T11:37:00.484Z,96.50
2018-03-26T11:38:00.501Z,96.79
2018-03-26T11:39:00.519Z,95.89
2018-03-26T11:40:00.537Z,95.65
2018-03-26T11:41:00.566Z,95.46
2018-03-26T11:42:00.573Z,95.65
2018-03-26T11:43:00.590Z,95.27
2018-03-26T11:44:00.612Z,95.27
2018-03-26T11:45:00.627Z,95.27
2018-03-26T11:46:00.646Z,95.56
2018-03-26T11:47:00.663Z,94.51
2018-03-26T11:48:00.790Z,94.56
2018-03-26T11:49:00.699Z,94.18
2018-03-26T11:50:00.719Z,94.46
2018-03-26T11:51:00.736Z,94.74
2018-03-26T11:52:00.754Z,94.56
2018-03-26T11:53:00.772Z,94.56
2018-03-26T11:54:00.792Z,95.17
2018-03-26T11:55:00.808Z,96.31
2018-03-26T11:56:00.826Z,96.17
2018-03-26T11:57:00.844Z,96.08
2018-03-26T11:58:00.863Z,96.36
2018-03-26T11:59:00.880Z,95.89
2018-03-26T12:00:00.904Z,95.03
2018-03-26T12:01:00.915Z,95.12
2018-03-26T12:02:00.935Z,94.37
2018-03-26T12:03:00.953Z,94.93
2018-03-26T12:04:00.971Z,94.93
2018-03-26T12:05:00.991Z,94.37
2018-03-26T12:06:01.009Z,94.27
2018-03-26T12:07:01.026Z,94.74
2018-03-26T12:08:01.044Z,94.74
2018-03-26T12:09:01.069Z,94.93
2018-03-26T12:10:01.083Z,94.93
2018-03-26T12:11:01.099Z,95.32
2018-03-26T12:12:01.117Z,95.32
2018-03-26T12:13:01.137Z,95.22
2018-03-26T12:14:01.158Z,94.93
2018-03-26T12:15:01.173Z,95.22
2018-03-26T12:16:01.191Z,94.84
2018-03-26T12:17:01.211Z,95.12
2018-03-26T12:18:01.229Z,95.51
2018-03-26T12:19:01.246Z,95.51
2018-03-26T12:20:01.269Z,94.84
2018-03-26T12:21:01.282Z,95.32
2018-03-26T12:22:01.303Z,94.93
2018-03-26T12:23:01.320Z,95.12
2018-03-26T12:24:01.338Z,94.93
2018-03-26T12:25:01.357Z,94.93
2018-03-26T12:26:01.377Z,94.56
2018-03-26T12:27:01.393Z,95.12
2018-03-26T12:28:01.413Z,94.56
2018-03-26T12:29:01.431Z,93.98
2018-03-26T12:30:01.450Z,94.08
2018-03-26T12:31:01.466Z,95.03
2018-03-26T12:32:01.491Z,94.93
2018-03-26T12:33:01.504Z,94.56
2018-03-26T12:34:01.522Z,94.22
2018-03-26T12:35:01.541Z,94.18
2018-03-26T12:36:01.558Z,93.89
2018-03-26T12:37:01.579Z,94.08
2018-03-26T12:38:01.600Z,95.03
2018-03-26T12:39:01.613Z,94.37
2018-03-26T12:40:01.633Z,94.46
2018-03-26T12:41:01.652Z,94.18
2018-03-26T12:42:01.673Z,93.89
2018-03-26T12:43:01.690Z,94.08
2018-03-26T12:44:01.718Z,93.89
2018-03-26T12:45:01.725Z,94.27
2018-03-26T12:46:01.744Z,94.37
2018-03-26T12:47:01.761Z,94.08
2018-03-26T12:48:01.800Z,93.18
2018-03-26T12:49:01.799Z,93.08
2018-03-26T12:50:01.818Z,92.79
2018-03-26T12:51:01.840Z,92.60
2018-03-26T12:52:01.856Z,92.51